Oregon State Flying Club

The Oregon State Flying Club is a non-profit organization committed to providing safe and inexpensive flying to the Oregon State University and Linn-Benton Community College communities. The Club currently owns three aircraft based at the Corvallis Airport for training, travel, and recreational purposes. Founded in 1952 and incorporated in 1956 the OSFC is one of the oldest continuously active flying clubs in the United States.

a Rafflecopter giveaway

News & Announcements

Next Meeting: Tuesday, October 14, 7pm @ Memorial Union

Monthly Board Meeting

Next Meeting: Tuesday, October 14, 6pm @ Memorial Union

Current METAR KCVO

Raw METAR:  KCVO 230155Z AUTO 20003KT 10SM BKN110 19/13 A2994 RMK AO1

This is a report for Corvallis Municipal Automatic Weather Observing / Reporting System, United States. The report was made 23 minutes ago, at 01:55 UTC. The wind was blowing at a speed of 3.5 miles per hour (1.5 meters per second) from south/southwest (200°). The temperature was 66 °F (19 °C), with a dew-point at 55 °F (13 °C). The atmospheric pressure was 29.94 inHg (1014 hPa). The relative humidity was 68.2%. There were broken clouds at a height of 11000 feet (3353 meters). The overall visibility was 10.0 miles (16.1 kilometers).